sensor_id;sensor_type;location;lat;lon;timestamp;P1;durP1;ratioP1;P2;durP2;ratioP2
15110;SDS011;7656;51.954;7.998;2023-03-01T00:01:55;10.50;;;5.93;;
15110;SDS011;7656;51.954;7.998;2023-03-01T00:06:16;6.33;;;5.07;;
15110;SDS011;7656;51.954;7.998;2023-03-01T00:10:38;7.17;;;5.13;;
15110;SDS011;7656;51.954;7.998;2023-03-01T00:14:59;8.43;;;5.30;;
15110;SDS011;7656;51.954;7.998;2023-03-01T00:19:20;11.37;;;5.17;;
15110;SDS011;7656;51.954;7.998;2023-03-01T00:23:44;8.63;;;5.93;;
15110;SDS011;7656;51.954;7.998;2023-03-01T00:28:05;9.10;;;5.67;;
15110;SDS011;7656;51.954;7.998;2023-03-01T00:32:26;8.00;;;5.47;;
15110;SDS011;7656;51.954;7.998;2023-03-01T00:36:47;7.23;;;5.60;;
15110;SDS011;7656;51.954;7.998;2023-03-01T00:41:10;7.40;;;5.37;;
15110;SDS011;7656;51.954;7.998;2023-03-01T00:45:37;7.57;;;5.80;;
15110;SDS011;7656;51.954;7.998;2023-03-01T00:49:58;6.67;;;4.57;;
15110;SDS011;7656;51.954;7.998;2023-03-01T00:54:19;6.63;;;4.77;;
15110;SDS011;7656;51.954;7.998;2023-03-01T00:58:42;6.10;;;4.63;;
15110;SDS011;7656;51.954;7.998;2023-03-01T01:03:03;6.23;;;4.70;;
15110;SDS011;7656;51.954;7.998;2023-03-01T01:07:24;6.83;;;4.70;;
15110;SDS011;7656;51.954;7.998;2023-03-01T01:11:46;8.20;;;4.83;;
15110;SDS011;7656;51.954;7.998;2023-03-01T01:16:10;8.57;;;4.60;;
15110;SDS011;7656;51.954;7.998;2023-03-01T01:20:31;5.20;;;4.30;;
15110;SDS011;7656;51.954;7.998;2023-03-01T01:24:53;7.67;;;4.67;;
15110;SDS011;7656;51.954;7.998;2023-03-01T01:29:14;7.60;;;4.93;;
15110;SDS011;7656;51.954;7.998;2023-03-01T01:33:35;7.40;;;5.63;;
15110;SDS011;7656;51.954;7.998;2023-03-01T01:37:57;6.73;;;4.53;;
15110;SDS011;7656;51.954;7.998;2023-03-01T01:42:18;8.23;;;4.87;;
15110;SDS011;7656;51.954;7.998;2023-03-01T01:51:43;7.17;;;4.73;;
15110;SDS011;7656;51.954;7.998;2023-03-01T01:56:08;6.60;;;4.70;;
15110;SDS011;7656;51.954;7.998;2023-03-01T02:00:32;7.50;;;5.13;;
15110;SDS011;7656;51.954;7.998;2023-03-01T02:04:56;7.60;;;5.37;;
15110;SDS011;7656;51.954;7.998;2023-03-01T02:09:25;8.60;;;5.83;;
15110;SDS011;7656;51.954;7.998;2023-03-01T02:13:48;7.87;;;4.97;;
15110;SDS011;7656;51.954;7.998;2023-03-01T02:18:11;5.83;;;4.53;;
15110;SDS011;7656;51.954;7.998;2023-03-01T02:22:35;7.20;;;4.87;;
15110;SDS011;7656;51.954;7.998;2023-03-01T02:26:59;5.13;;;4.07;;
15110;SDS011;7656;51.954;7.998;2023-03-01T02:31:21;5.33;;;3.97;;
15110;SDS011;7656;51.954;7.998;2023-03-01T02:36:02;9.23;;;4.50;;
15110;SDS011;7656;51.954;7.998;2023-03-01T02:40:33;7.87;;;5.00;;
15110;SDS011;7656;51.954;7.998;2023-03-01T02:44:56;8.37;;;5.27;;
15110;SDS011;7656;51.954;7.998;2023-03-01T02:49:19;7.77;;;5.47;;
15110;SDS011;7656;51.954;7.998;2023-03-01T02:53:53;6.03;;;4.43;;
15110;SDS011;7656;51.954;7.998;2023-03-01T02:58:19;7.83;;;5.07;;
15110;SDS011;7656;51.954;7.998;2023-03-01T03:02:40;6.17;;;4.03;;
15110;SDS011;7656;51.954;7.998;2023-03-01T03:07:13;7.30;;;4.97;;
15110;SDS011;7656;51.954;7.998;2023-03-01T03:11:34;5.80;;;4.43;;
15110;SDS011;7656;51.954;7.998;2023-03-01T03:15:57;9.43;;;4.67;;
15110;SDS011;7656;51.954;7.998;2023-03-01T03:20:19;6.70;;;4.63;;
15110;SDS011;7656;51.954;7.998;2023-03-01T03:24:42;6.50;;;4.80;;
15110;SDS011;7656;51.954;7.998;2023-03-01T03:29:03;7.73;;;4.63;;
15110;SDS011;7656;51.954;7.998;2023-03-01T03:33:24;7.70;;;4.97;;
15110;SDS011;7656;51.954;7.998;2023-03-01T03:37:45;8.17;;;5.03;;
15110;SDS011;7656;51.954;7.998;2023-03-01T03:42:26;7.57;;;4.97;;
15110;SDS011;7656;51.954;7.998;2023-03-01T03:46:47;7.27;;;4.17;;
15110;SDS011;7656;51.954;7.998;2023-03-01T03:51:15;5.80;;;4.23;;
15110;SDS011;7656;51.954;7.998;2023-03-01T03:55:37;6.57;;;4.10;;
15110;SDS011;7656;51.954;7.998;2023-03-01T04:00:02;5.80;;;4.37;;
15110;SDS011;7656;51.954;7.998;2023-03-01T04:04:32;5.80;;;4.10;;
15110;SDS011;7656;51.954;7.998;2023-03-01T04:08:53;8.77;;;4.60;;
15110;SDS011;7656;51.954;7.998;2023-03-01T04:13:19;6.63;;;3.83;;
15110;SDS011;7656;51.954;7.998;2023-03-01T04:17:42;7.60;;;4.47;;
15110;SDS011;7656;51.954;7.998;2023-03-01T04:22:05;8.73;;;4.63;;
15110;SDS011;7656;51.954;7.998;2023-03-01T04:26:29;7.23;;;4.87;;
15110;SDS011;7656;51.954;7.998;2023-03-01T04:30:51;6.93;;;4.63;;
15110;SDS011;7656;51.954;7.998;2023-03-01T04:35:13;6.97;;;4.43;;
15110;SDS011;7656;51.954;7.998;2023-03-01T04:39:35;7.13;;;4.50;;
15110;SDS011;7656;51.954;7.998;2023-03-01T04:44:06;7.20;;;5.10;;
15110;SDS011;7656;51.954;7.998;2023-03-01T04:48:30;5.90;;;3.70;;
15110;SDS011;7656;51.954;7.998;2023-03-01T04:52:52;7.87;;;4.13;;
15110;SDS011;7656;51.954;7.998;2023-03-01T04:57:13;8.00;;;4.37;;
15110;SDS011;7656;51.954;7.998;2023-03-01T05:01:34;6.30;;;4.23;;
15110;SDS011;7656;51.954;7.998;2023-03-01T05:05:57;6.20;;;4.07;;
15110;SDS011;7656;51.954;7.998;2023-03-01T05:10:20;4.97;;;4.10;;
15110;SDS011;7656;51.954;7.998;2023-03-01T05:14:41;6.93;;;4.40;;
15110;SDS011;7656;51.954;7.998;2023-03-01T05:19:03;6.63;;;4.33;;
15110;SDS011;7656;51.954;7.998;2023-03-01T05:23:35;5.80;;;3.60;;
15110;SDS011;7656;51.954;7.998;2023-03-01T05:27:57;6.80;;;4.40;;
15110;SDS011;7656;51.954;7.998;2023-03-01T05:32:20;7.70;;;4.73;;
15110;SDS011;7656;51.954;7.998;2023-03-01T05:36:41;5.23;;;3.47;;
15110;SDS011;7656;51.954;7.998;2023-03-01T05:41:02;5.87;;;4.07;;
15110;SDS011;7656;51.954;7.998;2023-03-01T05:45:24;7.50;;;4.20;;
15110;SDS011;7656;51.954;7.998;2023-03-01T05:49:47;6.97;;;4.73;;
15110;SDS011;7656;51.954;7.998;2023-03-01T05:54:09;5.77;;;4.07;;
15110;SDS011;7656;51.954;7.998;2023-03-01T05:58:31;7.47;;;4.67;;
15110;SDS011;7656;51.954;7.998;2023-03-01T06:02:53;5.47;;;4.67;;
15110;SDS011;7656;51.954;7.998;2023-03-01T06:07:15;7.43;;;4.33;;
15110;SDS011;7656;51.954;7.998;2023-03-01T06:11:36;6.77;;;4.93;;
15110;SDS011;7656;51.954;7.998;2023-03-01T06:15:57;7.17;;;4.63;;
15110;SDS011;7656;51.954;7.998;2023-03-01T06:20:20;6.17;;;5.23;;
15110;SDS011;7656;51.954;7.998;2023-03-01T06:24:43;7.73;;;5.07;;
15110;SDS011;7656;51.954;7.998;2023-03-01T06:29:04;6.37;;;5.27;;
15110;SDS011;7656;51.954;7.998;2023-03-01T06:33:25;5.53;;;4.40;;
15110;SDS011;7656;51.954;7.998;2023-03-01T06:37:47;7.43;;;4.53;;
15110;SDS011;7656;51.954;7.998;2023-03-01T06:42:08;7.93;;;4.50;;
15110;SDS011;7656;51.954;7.998;2023-03-01T06:46:32;14.70;;;8.00;;
15110;SDS011;7656;51.954;7.998;2023-03-01T06:50:53;12.70;;;6.57;;
15110;SDS011;7656;51.954;7.998;2023-03-01T06:55:18;11.33;;;5.73;;
15110;SDS011;7656;51.954;7.998;2023-03-01T06:59:39;8.10;;;6.07;;
15110;SDS011;7656;51.954;7.998;2023-03-01T07:04:00;8.87;;;5.93;;
15110;SDS011;7656;51.954;7.998;2023-03-01T07:08:21;9.57;;;6.23;;
15110;SDS011;7656;51.954;7.998;2023-03-01T07:12:42;10.17;;;6.60;;
15110;SDS011;7656;51.954;7.998;2023-03-01T07:17:03;7.90;;;5.87;;
15110;SDS011;7656;51.954;7.998;2023-03-01T07:21:24;11.13;;;6.80;;
15110;SDS011;7656;51.954;7.998;2023-03-01T07:25:51;9.00;;;6.17;;
15110;SDS011;7656;51.954;7.998;2023-03-01T07:30:13;6.47;;;5.53;;
15110;SDS011;7656;51.954;7.998;2023-03-01T07:34:34;7.20;;;5.90;;
15110;SDS011;7656;51.954;7.998;2023-03-01T07:38:55;8.37;;;5.57;;
15110;SDS011;7656;51.954;7.998;2023-03-01T07:43:18;7.90;;;5.57;;
15110;SDS011;7656;51.954;7.998;2023-03-01T07:47:40;7.77;;;6.30;;
15110;SDS011;7656;51.954;7.998;2023-03-01T07:52:01;5.93;;;5.33;;
15110;SDS011;7656;51.954;7.998;2023-03-01T07:56:22;6.30;;;5.13;;
15110;SDS011;7656;51.954;7.998;2023-03-01T08:00:43;5.93;;;5.30;;
15110;SDS011;7656;51.954;7.998;2023-03-01T08:05:04;6.38;;;5.72;;
15110;SDS011;7656;51.954;7.998;2023-03-01T08:09:26;6.80;;;5.30;;
15110;SDS011;7656;51.954;7.998;2023-03-01T08:13:47;7.10;;;5.40;;
15110;SDS011;7656;51.954;7.998;2023-03-01T08:18:09;7.07;;;5.40;;
15110;SDS011;7656;51.954;7.998;2023-03-01T08:22:30;6.35;;;5.10;;
15110;SDS011;7656;51.954;7.998;2023-03-01T08:26:51;7.65;;;5.47;;
15110;SDS011;7656;51.954;7.998;2023-03-01T08:31:20;6.07;;;5.35;;
15110;SDS011;7656;51.954;7.998;2023-03-01T08:35:45;8.00;;;5.22;;
15110;SDS011;7656;51.954;7.998;2023-03-01T08:40:06;6.15;;;5.60;;
15110;SDS011;7656;51.954;7.998;2023-03-01T08:44:30;6.70;;;5.18;;
15110;SDS011;7656;51.954;7.998;2023-03-01T08:48:51;8.07;;;5.10;;
15110;SDS011;7656;51.954;7.998;2023-03-01T08:53:12;5.80;;;4.82;;
15110;SDS011;7656;51.954;7.998;2023-03-01T08:57:33;7.15;;;5.43;;
15110;SDS011;7656;51.954;7.998;2023-03-01T09:01:55;6.43;;;5.50;;
15110;SDS011;7656;51.954;7.998;2023-03-01T09:06:16;6.32;;;5.47;;
15110;SDS011;7656;51.954;7.998;2023-03-01T09:10:38;8.48;;;6.38;;
15110;SDS011;7656;51.954;7.998;2023-03-01T09:14:59;8.00;;;5.57;;
15110;SDS011;7656;51.954;7.998;2023-03-01T09:19:20;6.53;;;5.82;;
15110;SDS011;7656;51.954;7.998;2023-03-01T09:23:42;6.97;;;5.60;;
15110;SDS011;7656;51.954;7.998;2023-03-01T09:28:06;9.30;;;5.72;;
15110;SDS011;7656;51.954;7.998;2023-03-01T09:32:27;8.70;;;5.90;;
15110;SDS011;7656;51.954;7.998;2023-03-01T09:36:51;8.73;;;6.07;;
15110;SDS011;7656;51.954;7.998;2023-03-01T09:41:26;8.37;;;6.20;;
15110;SDS011;7656;51.954;7.998;2023-03-01T09:46:09;12.10;;;6.17;;
15110;SDS011;7656;51.954;7.998;2023-03-01T09:50:38;9.57;;;6.33;;
15110;SDS011;7656;51.954;7.998;2023-03-01T09:55:05;9.60;;;5.70;;
15110;SDS011;7656;51.954;7.998;2023-03-01T10:09:19;5.40;;;4.30;;
15110;SDS011;7656;51.954;7.998;2023-03-01T10:18:09;6.17;;;4.60;;
15110;SDS011;7656;51.954;7.998;2023-03-01T10:22:38;6.93;;;4.03;;
15110;SDS011;7656;51.954;7.998;2023-03-01T10:31:58;6.67;;;5.00;;
15110;SDS011;7656;51.954;7.998;2023-03-01T10:36:19;7.40;;;5.00;;
15110;SDS011;7656;51.954;7.998;2023-03-01T10:40:56;6.67;;;4.80;;
15110;SDS011;7656;51.954;7.998;2023-03-01T10:50:04;7.33;;;4.80;;
15110;SDS011;7656;51.954;7.998;2023-03-01T10:54:30;6.73;;;5.27;;
15110;SDS011;7656;51.954;7.998;2023-03-01T10:59:03;6.10;;;5.27;;
15110;SDS011;7656;51.954;7.998;2023-03-01T11:03:27;6.50;;;5.90;;
15110;SDS011;7656;51.954;7.998;2023-03-01T11:07:53;11.80;;;5.17;;
15110;SDS011;7656;51.954;7.998;2023-03-01T11:12:17;6.43;;;5.23;;
15110;SDS011;7656;51.954;7.998;2023-03-01T11:16:39;7.20;;;5.03;;
15110;SDS011;7656;51.954;7.998;2023-03-01T11:21:03;7.53;;;5.50;;
15110;SDS011;7656;51.954;7.998;2023-03-01T11:25:26;6.33;;;5.13;;
15110;SDS011;7656;51.954;7.998;2023-03-01T11:29:59;5.33;;;3.53;;
15110;SDS011;7656;51.954;7.998;2023-03-01T11:34:47;7.93;;;4.80;;
15110;SDS011;7656;51.954;7.998;2023-03-01T11:44:16;5.23;;;4.57;;
15110;SDS011;7656;51.954;7.998;2023-03-01T11:48:57;7.37;;;4.57;;
15110;SDS011;7656;51.954;7.998;2023-03-01T11:53:47;8.83;;;5.00;;
15110;SDS011;7656;51.954;7.998;2023-03-01T12:08:24;7.13;;;5.20;;
15110;SDS011;7656;51.954;7.998;2023-03-01T12:18:25;8.73;;;4.97;;
15110;SDS011;7656;51.954;7.998;2023-03-01T12:27:32;7.57;;;4.73;;
15110;SDS011;7656;51.954;7.998;2023-03-01T12:37:26;6.77;;;4.97;;
15110;SDS011;7656;51.954;7.998;2023-03-01T12:47:26;6.17;;;4.93;;
15110;SDS011;7656;51.954;7.998;2023-03-01T12:52:10;7.77;;;4.80;;
15110;SDS011;7656;51.954;7.998;2023-03-01T12:56:39;6.53;;;4.80;;
15110;SDS011;7656;51.954;7.998;2023-03-01T13:01:22;7.57;;;4.67;;
15110;SDS011;7656;51.954;7.998;2023-03-01T13:10:49;7.70;;;4.57;;
15110;SDS011;7656;51.954;7.998;2023-03-01T13:19:43;5.53;;;4.37;;
15110;SDS011;7656;51.954;7.998;2023-03-01T13:29:02;5.73;;;4.13;;
15110;SDS011;7656;51.954;7.998;2023-03-01T13:37:47;6.17;;;4.23;;
15110;SDS011;7656;51.954;7.998;2023-03-01T13:46:59;5.10;;;4.17;;
15110;SDS011;7656;51.954;7.998;2023-03-01T13:51:37;4.43;;;4.03;;
15110;SDS011;7656;51.954;7.998;2023-03-01T13:56:00;4.97;;;4.33;;
15110;SDS011;7656;51.954;7.998;2023-03-01T14:00:35;7.50;;;4.93;;
15110;SDS011;7656;51.954;7.998;2023-03-01T14:04:59;7.43;;;4.93;;
15110;SDS011;7656;51.954;7.998;2023-03-01T14:09:25;5.87;;;4.43;;
15110;SDS011;7656;51.954;7.998;2023-03-01T14:18:25;6.30;;;4.33;;
15110;SDS011;7656;51.954;7.998;2023-03-01T14:23:00;5.30;;;4.60;;
15110;SDS011;7656;51.954;7.998;2023-03-01T14:27:35;5.60;;;4.87;;
15110;SDS011;7656;51.954;7.998;2023-03-01T14:32:19;6.23;;;4.07;;
15110;SDS011;7656;51.954;7.998;2023-03-01T14:36:42;5.20;;;4.17;;
15110;SDS011;7656;51.954;7.998;2023-03-01T14:41:11;8.43;;;4.20;;
15110;SDS011;7656;51.954;7.998;2023-03-01T14:45:39;7.63;;;4.20;;
15110;SDS011;7656;51.954;7.998;2023-03-01T14:50:09;6.37;;;4.57;;
15110;SDS011;7656;51.954;7.998;2023-03-01T14:54:38;5.27;;;3.73;;
15110;SDS011;7656;51.954;7.998;2023-03-01T14:59:04;6.77;;;5.33;;
15110;SDS011;7656;51.954;7.998;2023-03-01T15:07:57;5.93;;;3.87;;
15110;SDS011;7656;51.954;7.998;2023-03-01T15:12:25;7.20;;;4.50;;
15110;SDS011;7656;51.954;7.998;2023-03-01T15:16:49;5.80;;;3.77;;
15110;SDS011;7656;51.954;7.998;2023-03-01T15:21:15;6.03;;;4.33;;
15110;SDS011;7656;51.954;7.998;2023-03-01T15:25:44;5.77;;;3.87;;
15110;SDS011;7656;51.954;7.998;2023-03-01T15:30:06;4.70;;;3.87;;
15110;SDS011;7656;51.954;7.998;2023-03-01T15:34:39;7.37;;;3.80;;
15110;SDS011;7656;51.954;7.998;2023-03-01T15:39:01;5.77;;;4.20;;
15110;SDS011;7656;51.954;7.998;2023-03-01T15:43:37;6.83;;;3.90;;
15110;SDS011;7656;51.954;7.998;2023-03-01T15:48:04;6.80;;;4.13;;
15110;SDS011;7656;51.954;7.998;2023-03-01T15:52:39;7.23;;;4.33;;
15110;SDS011;7656;51.954;7.998;2023-03-01T15:57:02;7.00;;;4.07;;
15110;SDS011;7656;51.954;7.998;2023-03-01T16:01:23;6.53;;;3.90;;
15110;SDS011;7656;51.954;7.998;2023-03-01T16:05:45;5.30;;;4.17;;
15110;SDS011;7656;51.954;7.998;2023-03-01T16:10:06;6.33;;;4.30;;
15110;SDS011;7656;51.954;7.998;2023-03-01T16:14:27;4.23;;;3.53;;
15110;SDS011;7656;51.954;7.998;2023-03-01T16:18:48;6.10;;;4.10;;
15110;SDS011;7656;51.954;7.998;2023-03-01T16:23:09;5.40;;;3.53;;
15110;SDS011;7656;51.954;7.998;2023-03-01T16:27:32;4.50;;;3.87;;
15110;SDS011;7656;51.954;7.998;2023-03-01T16:31:53;6.20;;;3.23;;
15110;SDS011;7656;51.954;7.998;2023-03-01T16:36:14;4.90;;;3.23;;
15110;SDS011;7656;51.954;7.998;2023-03-01T16:40:36;4.43;;;3.23;;
15110;SDS011;7656;51.954;7.998;2023-03-01T16:44:57;5.83;;;3.37;;
15110;SDS011;7656;51.954;7.998;2023-03-01T16:49:18;4.23;;;3.37;;
15110;SDS011;7656;51.954;7.998;2023-03-01T16:53:39;8.70;;;3.80;;
15110;SDS011;7656;51.954;7.998;2023-03-01T16:58:01;3.70;;;3.20;;
15110;SDS011;7656;51.954;7.998;2023-03-01T17:02:22;6.27;;;3.70;;
15110;SDS011;7656;51.954;7.998;2023-03-01T17:06:43;4.37;;;3.17;;
15110;SDS011;7656;51.954;7.998;2023-03-01T17:11:11;8.23;;;4.17;;
15110;SDS011;7656;51.954;7.998;2023-03-01T17:15:39;6.10;;;4.53;;
15110;SDS011;7656;51.954;7.998;2023-03-01T17:20:01;6.23;;;4.70;;
15110;SDS011;7656;51.954;7.998;2023-03-01T17:24:23;7.77;;;4.23;;
15110;SDS011;7656;51.954;7.998;2023-03-01T17:28:44;10.87;;;4.77;;
15110;SDS011;7656;51.954;7.998;2023-03-01T17:33:11;8.23;;;3.90;;
15110;SDS011;7656;51.954;7.998;2023-03-01T17:37:32;6.23;;;3.83;;
15110;SDS011;7656;51.954;7.998;2023-03-01T17:41:53;6.07;;;4.00;;
15110;SDS011;7656;51.954;7.998;2023-03-01T17:46:14;5.50;;;3.50;;
15110;SDS011;7656;51.954;7.998;2023-03-01T17:50:36;6.47;;;3.77;;
15110;SDS011;7656;51.954;7.998;2023-03-01T17:54:59;5.57;;;3.97;;
15110;SDS011;7656;51.954;7.998;2023-03-01T17:59:20;4.90;;;3.80;;
15110;SDS011;7656;51.954;7.998;2023-03-01T18:03:42;9.07;;;4.23;;
15110;SDS011;7656;51.954;7.998;2023-03-01T18:08:04;6.13;;;4.67;;
15110;SDS011;7656;51.954;7.998;2023-03-01T18:12:25;7.87;;;4.77;;
15110;SDS011;7656;51.954;7.998;2023-03-01T18:16:46;8.73;;;6.00;;
15110;SDS011;7656;51.954;7.998;2023-03-01T18:21:09;8.40;;;5.60;;
15110;SDS011;7656;51.954;7.998;2023-03-01T18:25:30;7.00;;;4.33;;
15110;SDS011;7656;51.954;7.998;2023-03-01T18:29:51;7.60;;;4.93;;
15110;SDS011;7656;51.954;7.998;2023-03-01T18:34:13;7.17;;;4.67;;
15110;SDS011;7656;51.954;7.998;2023-03-01T18:38:34;7.20;;;4.63;;
15110;SDS011;7656;51.954;7.998;2023-03-01T18:42:55;10.37;;;5.53;;
15110;SDS011;7656;51.954;7.998;2023-03-01T18:47:16;5.30;;;4.03;;
15110;SDS011;7656;51.954;7.998;2023-03-01T18:51:37;5.73;;;3.53;;
15110;SDS011;7656;51.954;7.998;2023-03-01T18:55:59;3.63;;;3.17;;
15110;SDS011;7656;51.954;7.998;2023-03-01T19:00:21;4.27;;;3.57;;
15110;SDS011;7656;51.954;7.998;2023-03-01T19:04:43;5.17;;;4.17;;
15110;SDS011;7656;51.954;7.998;2023-03-01T19:09:05;6.17;;;3.70;;
15110;SDS011;7656;51.954;7.998;2023-03-01T19:13:28;4.37;;;3.40;;
15110;SDS011;7656;51.954;7.998;2023-03-01T19:17:49;6.17;;;3.57;;
15110;SDS011;7656;51.954;7.998;2023-03-01T19:22:10;5.97;;;4.17;;
15110;SDS011;7656;51.954;7.998;2023-03-01T19:26:32;8.60;;;4.57;;
15110;SDS011;7656;51.954;7.998;2023-03-01T19:31:00;10.13;;;5.27;;
15110;SDS011;7656;51.954;7.998;2023-03-01T19:35:30;10.20;;;5.30;;
15110;SDS011;7656;51.954;7.998;2023-03-01T19:39:54;19.73;;;8.50;;
15110;SDS011;7656;51.954;7.998;2023-03-01T19:44:15;19.83;;;10.47;;
15110;SDS011;7656;51.954;7.998;2023-03-01T19:48:36;12.73;;;7.70;;
15110;SDS011;7656;51.954;7.998;2023-03-01T19:52:59;11.20;;;6.63;;
15110;SDS011;7656;51.954;7.998;2023-03-01T19:57:20;9.83;;;5.67;;
15110;SDS011;7656;51.954;7.998;2023-03-01T20:01:41;8.13;;;5.17;;
15110;SDS011;7656;51.954;7.998;2023-03-01T20:06:10;10.67;;;5.47;;
15110;SDS011;7656;51.954;7.998;2023-03-01T20:10:39;7.10;;;4.70;;
15110;SDS011;7656;51.954;7.998;2023-03-01T20:15:00;7.13;;;5.20;;
15110;SDS011;7656;51.954;7.998;2023-03-01T20:19:22;5.97;;;4.87;;
15110;SDS011;7656;51.954;7.998;2023-03-01T20:23:43;8.57;;;5.23;;
15110;SDS011;7656;51.954;7.998;2023-03-01T20:28:04;5.73;;;4.03;;
15110;SDS011;7656;51.954;7.998;2023-03-01T20:32:25;13.33;;;5.10;;
15110;SDS011;7656;51.954;7.998;2023-03-01T20:36:46;6.77;;;4.57;;
15110;SDS011;7656;51.954;7.998;2023-03-01T20:41:09;6.40;;;5.00;;
15110;SDS011;7656;51.954;7.998;2023-03-01T20:45:32;11.60;;;5.27;;
15110;SDS011;7656;51.954;7.998;2023-03-01T20:49:53;9.13;;;4.97;;
15110;SDS011;7656;51.954;7.998;2023-03-01T20:54:14;9.53;;;5.10;;
15110;SDS011;7656;51.954;7.998;2023-03-01T20:58:35;8.13;;;5.10;;
15110;SDS011;7656;51.954;7.998;2023-03-01T21:02:57;7.60;;;5.10;;
15110;SDS011;7656;51.954;7.998;2023-03-01T21:07:18;7.53;;;4.60;;
15110;SDS011;7656;51.954;7.998;2023-03-01T21:11:39;9.03;;;5.07;;
15110;SDS011;7656;51.954;7.998;2023-03-01T21:16:01;7.27;;;4.23;;
15110;SDS011;7656;51.954;7.998;2023-03-01T21:20:27;9.60;;;5.47;;
15110;SDS011;7656;51.954;7.998;2023-03-01T21:24:49;8.87;;;5.50;;
15110;SDS011;7656;51.954;7.998;2023-03-01T21:29:11;7.63;;;4.97;;
15110;SDS011;7656;51.954;7.998;2023-03-01T21:33:32;6.97;;;4.53;;
15110;SDS011;7656;51.954;7.998;2023-03-01T21:37:54;7.10;;;4.60;;
15110;SDS011;7656;51.954;7.998;2023-03-01T21:42:15;7.03;;;4.70;;
15110;SDS011;7656;51.954;7.998;2023-03-01T21:46:37;6.73;;;4.53;;
15110;SDS011;7656;51.954;7.998;2023-03-01T21:51:01;7.27;;;4.50;;
15110;SDS011;7656;51.954;7.998;2023-03-01T21:55:23;5.70;;;4.03;;
15110;SDS011;7656;51.954;7.998;2023-03-01T21:59:44;6.47;;;4.03;;
15110;SDS011;7656;51.954;7.998;2023-03-01T22:04:05;4.70;;;3.37;;
15110;SDS011;7656;51.954;7.998;2023-03-01T22:08:26;6.27;;;4.37;;
15110;SDS011;7656;51.954;7.998;2023-03-01T22:12:48;5.03;;;3.37;;
15110;SDS011;7656;51.954;7.998;2023-03-01T22:17:09;4.13;;;3.20;;
15110;SDS011;7656;51.954;7.998;2023-03-01T22:21:30;4.70;;;3.33;;
15110;SDS011;7656;51.954;7.998;2023-03-01T22:25:51;6.30;;;4.10;;
15110;SDS011;7656;51.954;7.998;2023-03-01T22:30:12;6.90;;;4.10;;
15110;SDS011;7656;51.954;7.998;2023-03-01T22:34:34;8.20;;;4.93;;
15110;SDS011;7656;51.954;7.998;2023-03-01T22:38:55;10.17;;;6.03;;
15110;SDS011;7656;51.954;7.998;2023-03-01T22:43:21;7.93;;;4.43;;
15110;SDS011;7656;51.954;7.998;2023-03-01T22:47:42;9.70;;;4.83;;
15110;SDS011;7656;51.954;7.998;2023-03-01T22:52:03;9.10;;;4.43;;
15110;SDS011;7656;51.954;7.998;2023-03-01T22:56:25;7.10;;;4.10;;
15110;SDS011;7656;51.954;7.998;2023-03-01T23:00:49;6.97;;;4.57;;
15110;SDS011;7656;51.954;7.998;2023-03-01T23:05:10;5.43;;;3.73;;
15110;SDS011;7656;51.954;7.998;2023-03-01T23:09:32;8.80;;;4.63;;
15110;SDS011;7656;51.954;7.998;2023-03-01T23:13:55;6.57;;;4.70;;
15110;SDS011;7656;51.954;7.998;2023-03-01T23:18:18;7.20;;;3.60;;
15110;SDS011;7656;51.954;7.998;2023-03-01T23:22:39;7.07;;;4.10;;
15110;SDS011;7656;51.954;7.998;2023-03-01T23:27:01;6.77;;;4.17;;
15110;SDS011;7656;51.954;7.998;2023-03-01T23:31:23;6.47;;;4.00;;
15110;SDS011;7656;51.954;7.998;2023-03-01T23:35:49;8.07;;;4.17;;
15110;SDS011;7656;51.954;7.998;2023-03-01T23:40:11;7.47;;;3.70;;
15110;SDS011;7656;51.954;7.998;2023-03-01T23:44:33;5.83;;;3.50;;
15110;SDS011;7656;51.954;7.998;2023-03-01T23:48:54;5.10;;;3.87;;
15110;SDS011;7656;51.954;7.998;2023-03-01T23:53:17;5.77;;;4.20;;
15110;SDS011;7656;51.954;7.998;2023-03-01T23:57:40;7.67;;;4.70;;
